Latest Weather Observations for Cape Leeuwin

IDW60801

Issued at 9:43 am WST Wednesday 16 January 2019 (issued every 10 minutes, with the page automatically refreshed every 10 minutes)

About weather observations | Map of weather stations | Latest weather observations for WA | Other Formats
Station Details ID: 009518 Name: CAPE LEEUWIN Lat: -34.37 Lon: 115.14 Height: 13.0 m
Data from the previous 72 hours. | See also: Recent months at Cape Leeuwin
Date/Time
WST
Temp
°C
App
Temp
°C
Dew
Point
°C
Rel
Hum
%
Delta-T
°C
Wind Press
QNH
hPa
Press
MSL
hPa
Rain since
9am
mm
Dir  Spd
km/h
Gust
km/h
Spd
kts
Gust
kts
16/09:30am 19.9 17.9 10.2 53 5.2 W 11 15 6 8 1014.2 1014.1 0.0
16/09:00am 19.4 16.5 9.8 53 5.1 WSW 15 19 8 10 1014.4 1014.3 0.0
16/08:30am 19.4 17.1 10.5 56 4.8 WSW 13 17 7 9 1014.3 1014.2 0.0
16/08:00am 19.0 16.4 9.3 53 5.1 WSW 13 17 7 9 1014.2 1014.1 0.0
16/07:30am 18.7 16.9 9.4 54 4.9 SW 9 11 5 6 1013.9 1013.8 0.0
16/07:00am 18.1 16.0 9.8 58 4.4 SW 11 15 6 8 1013.8 1013.7 0.0
16/06:30am 17.2 15.2 8.6 57 4.4 SSW 9 13 5 7 1013.8 1013.7 0.0
16/06:00am 16.5 14.9 8.7 60 4.0 SSW 7 13 4 7 1013.3 1013.2 0.0
16/05:30am 15.9 13.4 8.4 61 3.8 S 11 13 6 7 1013.6 1013.5 0.0
16/05:00am 15.9 13.1 8.6 62 3.7 SSW 13 17 7 9 1013.7 1013.6 0.0
16/04:30am 16.1 13.3 8.4 60 3.9 S 13 17 7 9 1013.8 1013.7 0.0
16/04:00am 16.3 13.4 8.2 58 4.1 S 13 19 7 10 1013.7 1013.6 0.0
16/03:30am 16.7 14.0 8.9 60 4.0 S 13 19 7 10 1013.7 1013.6 0.0
16/03:00am 16.7 13.2 8.7 59 4.1 S 17 20 9 11 1013.6 1013.5 0.0
16/02:30am 17.1 13.1 9.2 59 4.1 S 20 26 11 14 1013.9 1013.8 0.0
16/02:00am 17.1 13.5 10.7 66 3.4 SSE 20 26 11 14 1013.9 1013.8 0.0
16/01:30am 17.1 14.0 11.6 70 3.0 SSE 19 24 10 13 1014.1 1014.0 0.0
16/01:00am 17.0 13.6 11.3 69 3.1 SSE 20 24 11 13 1014.1 1014.0 0.0
16/12:30am 16.9 13.5 11.1 68 3.1 SSE 20 30 11 16 1014.4 1014.3 0.0
16/12:00am 16.8 13.3 11.0 68 3.1 SSE 20 26 11 14 1014.5 1014.4 0.0
 
Date/Time
WST
Temp
°C
App
Temp
°C
Dew
Point
°C
Rel
Hum
%
Delta-T
°C
Wind Press
QNH
hPa
Press
MSL
hPa
Rain since
9am
mm
Dir  Spd
km/h
Gust
km/h
Spd
kts
Gust
kts
15/11:30pm 16.9 13.3 10.7 67 3.3 SSE 20 28 11 15 1014.6 1014.5 0.0
15/11:00pm 17.1 13.2 10.7 66 3.4 S 22 30 12 16 1014.8 1014.7 0.0
15/10:30pm 17.1 13.1 10.5 65 3.5 S 22 30 12 16 1015.2 1015.1 0.0
15/10:00pm 17.1 13.3 11.0 67 3.3 SSE 22 28 12 15 1015.2 1015.1 0.0
15/09:30pm 17.2 13.9 11.5 69 3.1 SSE 20 28 11 15 1015.3 1015.2 0.0
15/09:00pm 17.1 13.4 11.6 70 3.0 S 22 30 12 16 1015.0 1014.9 0.0
15/08:30pm 17.0 13.4 10.6 66 3.4 SSE 20 28 11 15 1014.7 1014.6 0.0
15/08:00pm 17.3 13.5 11.2 67 3.3 S 22 30 12 16 1014.6 1014.5 0.0
15/07:30pm 17.5 13.7 11.0 65 3.5 S 22 30 12 16 1014.7 1014.6 0.0
15/07:00pm 17.9 14.2 10.0 60 4.2 SSE 20 30 11 16 1014.6 1014.5 0.0
15/06:30pm 18.5 14.6 9.6 56 4.7 SSE 20 28 11 15 1014.5 1014.4 0.0
15/06:00pm 18.6 15.0 9.7 56 4.7 S 19 26 10 14 1014.4 1014.3 0.0
15/05:30pm 19.5 15.8 10.2 55 5.0 S 20 28 11 15 1014.3 1014.2 0.0
15/05:00pm 20.1 16.5 9.8 51 5.5 S 19 28 10 15 1014.5 1014.4 0.0
15/04:30pm 20.3 16.4 9.4 49 5.8 S 20 30 11 16 1014.5 1014.4 0.0
15/04:00pm 20.6 16.3 9.3 48 6.0 S 22 32 12 17 1014.6 1014.5 0.0
15/03:30pm 21.0 16.3 9.4 47 6.2 S 24 32 13 17 1014.7 1014.6 0.0
15/03:00pm 20.8 16.5 9.3 47 6.1 S 22 30 12 16 1014.9 1014.8 0.0
15/02:30pm 21.3 16.2 9.3 46 6.4 S 26 35 14 19 1015.0 1014.9 0.0
15/02:00pm 21.3 16.6 9.3 46 6.4 S 24 33 13 18 1015.2 1015.1 0.0
15/01:30pm 21.7 17.2 10.1 47 6.3 S 24 32 13 17 1015.3 1015.2 0.0
15/01:00pm 21.5 16.8 9.3 45 6.5 SSE 24 32 13 17 1015.7 1015.6 0.0
15/12:30pm 21.5 18.0 11.0 51 5.8 SSE 20 28 11 15 1015.9 1015.8 0.0
15/12:00pm 20.2 15.8 10.4 53 5.3 SSE 24 33 13 18 1016.0 1015.9 0.0
15/11:30am 21.4 16.9 8.7 44 6.7 SSE 22 30 12 16 1016.0 1015.9 0.0
15/11:00am 20.5 16.2 7.7 43 6.6 SE 20 26 11 14 1016.2 1016.1 0.0
15/10:30am 20.1 16.2 8.6 47 6.0 SE 19 26 10 14 1016.4 1016.3 0.0
15/10:00am 19.6 15.6 8.2 47 5.9 SSE 19 26 10 14 1016.5 1016.4 0.0
15/09:30am 19.5 15.9 8.5 49 5.7 SSE 17 24 9 13 1016.4 1016.3 0.0
15/09:00am 19.1 15.1 8.2 49 5.6 SSE 19 26 10 14 1016.4 1016.3 0.0
15/08:30am 19.5 15.2 8.0 47 5.9 SSE 20 26 11 14 1016.6 1016.5 0.0
15/08:00am 18.9 14.8 8.7 51 5.3 SSE 20 28 11 15 1016.5 1016.4 0.0
15/07:30am 18.3 14.1 8.4 52 5.1 SSE 20 28 11 15 1016.4 1016.3 0.0
15/07:00am 17.5 12.9 8.1 54 4.8 SSE 22 30 12 16 1016.2 1016.1 0.0
15/06:30am 16.9 12.7 8.3 57 4.4 SSE 20 28 11 15 1015.8 1015.7 0.0
15/06:00am 16.7 12.4 8.0 56 4.4 SSE 20 30 11 16 1015.7 1015.6 0.0
15/05:30am 16.3 12.1 8.4 59 4.0 SSE 20 30 11 16 1015.7 1015.6 0.0
15/05:00am 16.4 11.8 8.1 58 4.2 SSE 22 30 12 16 1015.5 1015.4 0.0
15/04:30am 16.6 11.6 8.1 57 4.3 SSE 24 32 13 17 1015.4 1015.3 0.0
15/04:00am 16.7 11.8 8.5 58 4.2 SSE 24 32 13 17 1015.4 1015.3 0.0
15/03:30am 16.7 11.8 8.5 58 4.2 SSE 24 32 13 17 1015.4 1015.3 0.0
15/03:00am 16.7 11.8 8.5 58 4.2 SE 24 32 13 17 1015.4 1015.3 0.0
15/02:30am 16.3 11.5 8.7 60 3.9 SE 24 30 13 16 1015.5 1015.4 0.0
15/02:00am 16.4 12.0 9.0 61 3.8 SE 22 30 12 16 1015.8 1015.7 0.0
15/01:30am 16.4 11.8 8.3 58 4.1 SE 22 30 12 16 1016.1 1016.0 0.0
15/01:00am 16.4 11.8 8.1 58 4.2 SSE 22 28 12 15 1016.3 1016.2 0.0
15/12:30am 16.5 11.9 8.2 58 4.2 SSE 22 30 12 16 1016.4 1016.3 0.0
15/12:00am 16.3 10.9 8.0 58 4.2 S 26 32 14 17 1016.4 1016.3 0.0
 
Date/Time
WST
Temp
°C
App
Temp
°C
Dew
Point
°C
Rel
Hum
%
Delta-T
°C
Wind Press
QNH
hPa
Press
MSL
hPa
Rain since
9am
mm
Dir  Spd
km/h
Gust
km/h
Spd
kts
Gust
kts
14/11:30pm 16.4 11.4 8.1 58 4.2 SSE 24 35 13 19 1016.7 1016.6 0.0
14/11:00pm 16.7 11.5 8.9 60 4.0 SSE 26 35 14 19 1017.0 1016.9 0.0
14/10:30pm 16.6 10.8 8.1 57 4.3 SSE 28 35 15 19 1017.2 1017.1 0.0
14/10:00pm 16.6 10.9 8.3 58 4.2 SSE 28 37 15 20 1017.5 1017.4 0.0
14/09:30pm 16.9 10.9 8.5 57 4.3 S 30 37 16 20 1017.5 1017.4 0.0
14/09:00pm 17.0 11.4 8.6 57 4.3 S 28 39 15 21 1017.5 1017.4 0.0
14/08:30pm 17.0 11.5 9.3 60 4.0 S 28 37 15 20 1017.3 1017.2 0.0
14/08:00pm 17.2 11.6 10.0 62 3.8 S 30 41 16 22 1017.2 1017.1 0.0
14/07:30pm 17.2 11.3 9.1 59 4.2 S 30 39 16 21 1016.8 1016.7 0.0
14/07:00pm 17.6 12.2 9.4 58 4.3 S 28 35 15 19 1016.5 1016.4 0.0
14/06:30pm 18.3 12.7 10.0 58 4.4 S 30 39 16 21 1016.2 1016.1 0.0
14/06:00pm 18.5 13.2 10.0 57 4.5 S 28 37 15 20 1015.9 1015.8 0.0
14/05:30pm 19.1 14.0 9.2 52 5.2 S 26 35 14 19 1015.7 1015.6 0.0
14/05:00pm 19.2 14.1 9.1 52 5.3 S 26 35 14 19 1015.5 1015.4 0.0
14/04:30pm 20.3 15.6 9.1 48 5.9 S 24 35 13 19 1015.7 1015.6 0.0
14/04:00pm 20.5 16.0 9.9 50 5.7 SSE 24 33 13 18 1015.7 1015.6 0.0
14/03:30pm 20.7 16.3 10.4 51 5.6 SSE 24 35 13 19 1015.7 1015.6 0.0
14/03:00pm 20.7 15.9 10.4 51 5.6 SSE 26 35 14 19 1015.7 1015.6 0.0
14/02:30pm 21.3 16.8 10.2 49 6.0 SSE 24 33 13 18 1015.9 1015.8 0.0
14/02:00pm 21.1 16.4 9.3 46 6.3 SSE 24 30 13 16 1015.9 1015.8 0.0
14/01:30pm 21.2 16.5 9.2 46 6.4 SSE 24 32 13 17 1016.0 1015.9 0.0
14/01:00pm 21.3 16.2 9.3 46 6.4 SSE 26 32 14 17 1016.3 1016.2 0.0
14/12:30pm 21.0 15.8 8.9 46 6.4 SSE 26 33 14 18 1016.5 1016.4 0.0
14/12:00pm 21.4 16.9 10.1 48 6.1 SSE 24 32 13 17 1016.7 1016.6 0.0
14/11:30am 20.9 17.1 11.1 53 5.4 SE 22 30 12 16 1016.7 1016.6 0.0
14/11:00am 20.2 15.6 9.5 50 5.7 SE 24 35 13 19 1016.9 1016.8 0.0
14/10:30am 19.2 15.2 9.1 52 5.3 SSE 20 28 11 15 1017.1 1017.0 0.0
14/10:00am 18.7 15.3 10.5 59 4.4 ESE 19 24 10 13 1017.3 1017.2 0.0
14/09:30am 18.5 14.5 10.3 59 4.4 SE 22 33 12 18 1017.5 1017.4 0.0
14/09:00am 17.9 14.3 10.6 62 3.9 SE 20 24 11 13 1017.7 1017.6 0.0
14/08:30am 17.5 14.1 10.6 64 3.7 ESE 19 24 10 13 1017.6 1017.5 0.0
14/08:00am 17.1 13.8 10.9 67 3.3 E 19 24 10 13 1017.9 1017.8 0.0
14/07:30am 17.1 12.8 10.7 66 3.4 E 24 28 13 15 1017.9 1017.8 0.0
14/07:00am 17.0 12.7 10.8 67 3.3 E 24 30 13 16 1018.0 1017.9 0.0
14/06:30am 17.1 12.0 10.7 66 3.4 E 28 32 15 17 1017.8 1017.7 0.0
14/06:00am 17.1 12.8 10.7 66 3.4 ESE 24 33 13 18 1017.8 1017.7 0.0
14/05:30am 17.1 13.2 10.7 66 3.4 ESE 22 28 12 15 1017.6 1017.5 0.0
14/05:00am 17.1 13.0 11.4 69 3.1 E 24 30 13 16 1017.4 1017.3 0.0
14/04:30am 17.3 13.4 10.8 65 3.5 ESE 22 28 12 15 1017.4 1017.3 0.0
14/04:00am 17.2 13.9 11.5 69 3.1 ESE 20 28 11 15 1017.2 1017.1 0.0
14/03:30am 17.2 12.3 10.0 62 3.8 SE 26 32 14 17 1017.1 1017.0 0.0
14/03:00am 17.2 12.2 9.5 60 4.0 SE 26 32 14 17 1017.1 1017.0 0.0
14/02:30am 17.1 12.6 9.9 62 3.8 SE 24 32 13 17 1017.2 1017.1 0.0
14/02:00am 17.1 12.2 10.1 63 3.7 SE 26 32 14 17 1017.5 1017.4 0.0
14/01:30am 17.2 11.4 9.5 60 4.0 SE 30 35 16 19 1017.6 1017.5 0.0
14/01:00am 17.6 11.8 10.7 64 3.7 SE 32 39 17 21 1017.6 1017.5 0.0
14/12:30am 17.6 12.4 11.7 68 3.2 SE 30 41 16 22 1017.7 1017.6 0.0
14/12:00am 17.5 12.2 11.4 67 3.3 SE 30 39 16 21 1017.9 1017.8 0.0
 
Date/Time
WST
Temp
°C
App
Temp
°C
Dew
Point
°C
Rel
Hum
%
Delta-T
°C
Wind Press
QNH
hPa
Press
MSL
hPa
Rain since
9am
mm
Dir  Spd
km/h
Gust
km/h
Spd
kts
Gust
kts
13/11:30pm 17.7 12.7 12.1 69 3.1 SE 30 39 16 21 1018.2 1018.1 0.0
13/11:00pm 17.4 12.1 11.3 67 3.3 SE 30 39 16 21 1018.3 1018.2 0.0
13/10:30pm 17.5 12.4 12.0 70 3.0 SE 30 39 16 21 1018.4 1018.3 0.0
13/10:00pm 17.6 12.6 12.1 70 3.0 SE 30 37 16 20 1018.6 1018.5 0.0
13/09:30pm 17.6 12.4 11.7 68 3.2 SE 30 39 16 21 1018.7 1018.6 0.0
13/09:00pm 17.7 12.1 11.4 66 3.4 SE 32 39 17 21 1018.7 1018.6 0.0
13/08:30pm 17.8 12.1 11.3 65 3.5 SSE 32 39 17 21 1018.6 1018.5 0.0
13/08:00pm 18.1 13.5 12.3 69 3.2 SSE 28 35 15 19 1018.5 1018.4 0.0
13/07:30pm 18.2 12.7 12.0 67 3.4 SSE 32 37 17 20 1018.3 1018.2 0.0
13/07:00pm 18.3 13.3 12.1 67 3.4 SSE 30 35 16 19 1017.9 1017.8 0.0
13/06:30pm 18.7 14.2 12.6 67 3.4 SSE 28 39 15 21 1017.6 1017.5 0.0
13/06:00pm 18.8 14.5 13.3 70 3.1 SSE 28 37 15 20 1017.4 1017.3 0.0
13/05:30pm 19.1 15.3 13.7 71 3.1 SSE 26 35 14 19 1016.9 1016.8 0.0
13/05:00pm 19.2 15.5 14.0 72 3.0 SSE 26 33 14 18 1016.7 1016.6 0.0
13/04:30pm 20.2 17.3 14.1 68 3.5 SSE 22 30 12 16 1016.7 1016.6 0.0
13/04:00pm 19.2 15.7 14.5 74 2.7 SSE 26 33 14 18 1016.6 1016.5 0.0
13/03:30pm 19.8 16.6 15.2 75 2.7 S 26 35 14 19 1016.5 1016.4 0.0
13/03:00pm 20.5 16.9 15.2 71 3.1 S 28 33 15 18 1016.5 1016.4 0.0
13/02:30pm 20.6 18.5 16.1 75 2.7 S 22 30 12 16 1016.4 1016.3 0.0
13/02:00pm 21.2 18.6 15.9 72 3.2 S 24 32 13 17 1016.3 1016.2 0.0
13/01:30pm 22.6 20.1 16.2 67 3.9 S 24 32 13 17 1016.1 1016.0 0.0
13/01:00pm 23.1 20.4 16.7 67 3.9 S 26 33 14 18 1016.0 1015.9 0.0
13/12:30pm 22.2 19.4 17.3 74 3.0 SSW 28 35 15 19 1015.9 1015.8 0.0
13/12:00pm 20.5 18.3 17.9 85 1.6 SSW 26 32 14 17 1015.7 1015.6 0.0
13/11:30am 22.3 22.0 17.3 73 3.1 S 15 22 8 12 1015.6 1015.5 0.0
13/11:00am 22.1 21.3 17.0 73 3.1 SSW 17 20 9 11 1015.5 1015.4 0.0
13/10:30am 23.1 22.7 17.1 69 3.7 SSW 15 20 8 11 1015.6 1015.5 0.0
13/10:00am 22.0 21.1 16.9 73 3.1 SSW 17 20 9 11 1015.4 1015.3 0.0

Other Formats:

Comma delimited format used in spreadsheet applications
http://www.bom.gov.au/fwo/IDW60801/IDW60801.94601.axf

JavaScript Object Notation format (JSON) in row-major order
http://www.bom.gov.au/fwo/IDW60801/IDW60801.94601.json